createdAt,value
2019-03-05T00:01:57.523Z,1.50
2019-03-05T00:04:29.854Z,1.50
2019-03-05T00:07:01.495Z,1.50
2019-03-05T00:09:33.237Z,1.50
2019-03-05T00:12:05.293Z,1.60
2019-03-05T00:14:37.421Z,1.70
2019-03-05T00:17:09.129Z,1.80
2019-03-05T00:19:42.212Z,1.90
2019-03-05T00:22:13.942Z,1.80
2019-03-05T00:25:01.265Z,1.70
2019-03-05T00:27:39.397Z,1.60
2019-03-05T00:30:47.786Z,1.60
2019-03-05T00:33:52.459Z,1.60
2019-03-05T00:36:29.145Z,1.60
2019-03-05T00:39:17.759Z,1.60
2019-03-05T00:42:30.109Z,1.60
2019-03-05T00:45:36.405Z,1.60
2019-03-05T00:48:23.161Z,1.50
2019-03-05T00:51:44.291Z,1.50
2019-03-05T00:54:30.520Z,1.50
2019-03-05T00:57:14.342Z,1.60
2019-03-05T01:00:29.018Z,1.70
2019-03-05T01:03:25.235Z,1.80
2019-03-05T01:06:18.571Z,1.80
2019-03-05T01:08:50.118Z,1.70
2019-03-05T01:11:22.167Z,1.70
2019-03-05T01:13:53.862Z,1.70
2019-03-05T01:16:32.737Z,1.70
2019-03-05T01:19:04.253Z,1.60
2019-03-05T01:21:36.132Z,1.60
2019-03-05T01:24:07.961Z,1.60
2019-03-05T01:26:40.473Z,1.60
2019-03-05T01:29:12.008Z,1.50
2019-03-05T01:32:00.866Z,1.50
2019-03-05T01:34:49.981Z,1.50
2019-03-05T01:37:21.678Z,1.40
2019-03-05T01:40:08.245Z,1.40
2019-03-05T01:42:40.019Z,1.40
2019-03-05T01:45:13.350Z,1.30
2019-03-05T01:47:45.007Z,1.30
2019-03-05T01:50:16.656Z,1.30
2019-03-05T01:52:48.308Z,1.30
2019-03-05T01:55:19.907Z,1.30
2019-03-05T01:57:51.562Z,1.30
2019-03-05T02:00:24.287Z,1.30
2019-03-05T02:02:55.895Z,1.30
2019-03-05T02:05:27.484Z,1.30
2019-03-05T02:07:59.525Z,1.30
2019-03-05T02:10:31.106Z,1.10
2019-03-05T02:13:02.918Z,1.10
2019-03-05T02:15:34.517Z,1.10
2019-03-05T02:18:07.045Z,1.10
2019-03-05T02:20:38.562Z,1.10
2019-03-05T02:23:29.890Z,1.00
2019-03-05T02:26:19.204Z,1.00
2019-03-05T02:28:57.242Z,1.00
2019-03-05T02:32:24.631Z,1.10
2019-03-05T02:35:14.376Z,1.10
2019-03-05T02:38:53.818Z,1.20
2019-03-05T02:41:45.364Z,1.20
2019-03-05T02:45:06.276Z,1.00
2019-03-05T02:48:08.549Z,0.80
2019-03-05T02:51:16.414Z,0.70
2019-03-05T02:54:24.282Z,0.70
2019-03-05T02:57:11.048Z,0.70
2019-03-05T02:59:42.607Z,0.80
2019-03-05T03:02:32.299Z,0.80
2019-03-05T03:05:14.196Z,0.90
2019-03-05T03:07:46.171Z,0.90
2019-03-05T03:10:20.640Z,0.80
2019-03-05T03:12:52.233Z,0.80
2019-03-05T03:15:23.740Z,0.90
2019-03-05T03:17:55.541Z,1.00
2019-03-05T03:20:27.270Z,0.90
2019-03-05T03:22:59.114Z,1.00
2019-03-05T03:25:30.727Z,0.90
2019-03-05T03:28:03.323Z,1.00
2019-03-05T03:30:34.888Z,1.00
2019-03-05T03:33:06.637Z,1.00
2019-03-05T03:35:38.308Z,1.10
2019-03-05T03:38:10.976Z,1.20
2019-03-05T03:40:42.596Z,1.20
2019-03-05T03:43:14.309Z,1.30
2019-03-05T03:45:45.887Z,1.30
2019-03-05T03:48:17.504Z,1.30
2019-03-05T03:50:49.168Z,1.40
2019-03-05T03:53:20.732Z,1.50
2019-03-05T03:55:52.349Z,1.50
2019-03-05T03:58:24.208Z,1.50
2019-03-05T04:00:55.922Z,1.50
2019-03-05T04:03:27.761Z,1.70
2019-03-05T04:05:59.408Z,1.60
2019-03-05T04:08:30.986Z,1.40
2019-03-05T04:11:02.539Z,1.10
2019-03-05T04:13:34.122Z,1.00
2019-03-05T04:16:05.776Z,0.90
2019-03-05T04:18:48.250Z,0.80
2019-03-05T04:21:20.388Z,0.70
2019-03-05T04:23:53.299Z,0.90
2019-03-05T04:26:25.216Z,0.80
2019-03-05T04:28:57.041Z,0.70
2019-03-05T04:31:28.841Z,0.70
2019-03-05T04:34:00.641Z,0.60
2019-03-05T04:36:32.712Z,0.50
2019-03-05T04:39:06.369Z,0.60
2019-03-05T04:41:38.068Z,0.60
2019-03-05T04:44:09.724Z,0.60
2019-03-05T04:46:53.749Z,0.70
2019-03-05T04:49:33.918Z,0.70
2019-03-05T04:52:08.646Z,0.70
2019-03-05T04:54:40.188Z,0.80
2019-03-05T04:57:11.663Z,0.90
2019-03-05T04:59:43.344Z,1.00
2019-03-05T05:02:14.894Z,1.10
2019-03-05T05:04:46.664Z,1.20
2019-03-05T05:07:19.094Z,1.40
2019-03-05T05:09:50.799Z,1.50
2019-03-05T05:12:22.280Z,1.60
2019-03-05T05:14:53.999Z,1.80
2019-03-05T05:17:25.615Z,2.10
2019-03-05T05:19:57.288Z,2.20
2019-03-05T05:22:29.153Z,2.40
2019-03-05T05:25:00.785Z,3.00
2019-03-05T05:27:32.636Z,3.60
2019-03-05T05:30:04.328Z,4.00
2019-03-05T05:32:36.178Z,4.40
2019-03-05T05:35:08.107Z,5.00
2019-03-05T05:37:40.967Z,5.30
2019-03-05T05:40:27.122Z,5.50
2019-03-05T05:42:58.758Z,5.80
2019-03-05T05:45:33.945Z,6.40
2019-03-05T05:48:05.722Z,6.60
2019-03-05T05:50:37.451Z,6.80
2019-03-05T05:53:08.935Z,7.10
2019-03-05T05:55:40.575Z,6.60
2019-03-05T05:58:12.630Z,7.00
2019-03-05T06:00:47.488Z,6.30
2019-03-05T06:03:19.126Z,6.80
2019-03-05T06:05:50.781Z,6.90
2019-03-05T06:08:23.307Z,6.90
2019-03-05T06:10:55.177Z,7.30
2019-03-05T06:13:26.803Z,7.20
2019-03-05T06:15:58.484Z,7.50
2019-03-05T06:18:30.266Z,7.80
2019-03-05T06:21:01.935Z,8.20
2019-03-05T06:23:33.602Z,8.20
2019-03-05T06:26:08.536Z,8.40
2019-03-05T06:28:39.438Z,8.70
2019-03-05T06:31:12.338Z,9.30
2019-03-05T06:33:43.950Z,10.20
2019-03-05T06:36:16.086Z,10.50
2019-03-05T06:38:47.675Z,10.20
2019-03-05T06:41:19.273Z,10.20
2019-03-05T06:43:50.757Z,9.90
2019-03-05T06:46:22.368Z,9.40
2019-03-05T06:48:54.646Z,9.40
2019-03-05T06:51:27.405Z,10.40
2019-03-05T06:53:58.946Z,11.00
2019-03-05T06:56:30.725Z,10.80
2019-03-05T06:59:02.419Z,11.70
2019-03-05T07:01:34.035Z,11.30
2019-03-05T07:04:05.768Z,10.70
2019-03-05T07:06:51.423Z,10.80
2019-03-05T07:09:27.798Z,11.10
2019-03-05T07:12:22.981Z,11.90
2019-03-05T07:15:30.196Z,11.30
2019-03-05T07:18:10.497Z,11.30
2019-03-05T07:21:14.984Z,11.40
2019-03-05T07:24:13.358Z,11.80
2019-03-05T07:26:45.220Z,12.60
2019-03-05T07:29:18.076Z,13.60
2019-03-05T07:31:51.083Z,13.80
2019-03-05T07:34:26.167Z,13.90
2019-03-05T07:36:58.407Z,14.10
2019-03-05T07:39:30.213Z,14.30
2019-03-05T07:42:01.891Z,14.90
2019-03-05T07:44:34.087Z,14.40
2019-03-05T07:47:05.725Z,14.60
2019-03-05T07:49:43.714Z,15.70
2019-03-05T07:52:11.505Z,15.90
2019-03-05T07:54:43.096Z,16.20
2019-03-05T07:57:14.650Z,16.30
2019-03-05T07:59:46.413Z,17.10
2019-03-05T08:02:18.086Z,16.90
2019-03-05T08:04:49.747Z,15.90
2019-03-05T08:07:21.432Z,16.60
2019-03-05T08:09:53.216Z,17.40
2019-03-05T08:12:55.548Z,16.80
2019-03-05T08:15:48.862Z,17.30
2019-03-05T08:18:20.624Z,18.20
2019-03-05T08:20:52.164Z,17.60
2019-03-05T08:23:23.791Z,18.60
2019-03-05T08:25:55.300Z,18.30
2019-03-05T08:28:27.150Z,17.50
2019-03-05T08:31:11.020Z,18.40
2019-03-05T08:33:42.738Z,18.90
2019-03-05T08:36:14.461Z,18.20
2019-03-05T08:38:46.085Z,19.00
2019-03-05T08:41:19.003Z,18.40
2019-03-05T08:43:50.766Z,18.40
2019-03-05T08:46:22.566Z,18.70
2019-03-05T08:48:54.172Z,19.60
2019-03-05T08:51:25.889Z,19.40
2019-03-05T08:53:57.759Z,19.60
2019-03-05T08:56:30.306Z,19.60
2019-03-05T08:59:01.895Z,19.60
2019-03-05T09:01:33.480Z,18.70
2019-03-05T09:04:05.152Z,19.20
2019-03-05T09:06:36.731Z,18.90
2019-03-05T09:09:10.343Z,18.70
2019-03-05T09:11:43.504Z,18.80
2019-03-05T09:14:15.282Z,18.80
2019-03-05T09:16:47.103Z,18.70
2019-03-05T09:19:18.721Z,18.70
2019-03-05T09:21:50.416Z,19.00
2019-03-05T09:24:22.130Z,18.80
2019-03-05T09:26:54.127Z,19.20
2019-03-05T09:29:26.002Z,18.40
2019-03-05T09:31:57.560Z,19.30
2019-03-05T09:34:29.299Z,19.00
2019-03-05T09:37:01.051Z,19.60
2019-03-05T09:39:32.884Z,19.50
2019-03-05T09:42:04.529Z,19.20
2019-03-05T09:44:36.358Z,19.40
2019-03-05T09:47:08.193Z,19.10
2019-03-05T09:49:40.036Z,19.60
2019-03-05T09:52:11.698Z,19.50
2019-03-05T09:54:43.457Z,19.40
2019-03-05T09:57:15.325Z,19.00
2019-03-05T09:59:47.220Z,19.10
2019-03-05T10:02:19.430Z,19.20
2019-03-05T10:04:51.262Z,18.70
2019-03-05T10:07:23.105Z,18.40
2019-03-05T10:09:54.749Z,19.10
2019-03-05T10:12:26.523Z,19.60
2019-03-05T10:14:58.148Z,19.80
2019-03-05T10:17:37.677Z,19.80
2019-03-05T10:20:03.937Z,19.30
2019-03-05T10:22:36.094Z,18.60
2019-03-05T10:25:07.911Z,18.20
2019-03-05T10:27:39.455Z,18.10
2019-03-05T10:30:24.767Z,18.50
2019-03-05T10:32:51.641Z,19.10
2019-03-05T10:35:26.014Z,19.20
2019-03-05T10:37:59.872Z,18.80
2019-03-05T10:40:33.753Z,19.20
2019-03-05T10:43:08.718Z,19.30
2019-03-05T10:45:41.467Z,19.00
2019-03-05T10:48:13.289Z,19.00
2019-03-05T10:50:45.018Z,19.00
2019-03-05T10:53:16.800Z,18.70
2019-03-05T10:55:48.585Z,18.80
2019-03-05T10:58:32.846Z,19.00
2019-03-05T11:00:54.706Z,18.80
2019-03-05T11:03:27.688Z,19.20
2019-03-05T11:05:59.276Z,19.40
2019-03-05T11:08:31.047Z,19.40
2019-03-05T11:11:13.148Z,19.00
2019-03-05T11:13:36.483Z,19.10
2019-03-05T11:16:08.369Z,19.20
2019-03-05T11:18:40.244Z,19.40
2019-03-05T11:21:12.777Z,19.60
2019-03-05T11:23:44.569Z,20.10
2019-03-05T11:26:16.324Z,19.70
2019-03-05T11:28:48.945Z,19.90
2019-03-05T11:31:20.599Z,20.50
2019-03-05T11:33:52.139Z,20.30
2019-03-05T11:36:24.358Z,20.30
2019-03-05T11:38:55.862Z,20.40
2019-03-05T11:41:27.522Z,19.80
2019-03-05T11:43:59.131Z,19.40
2019-03-05T11:46:31.775Z,19.70
2019-03-05T11:49:03.470Z,20.30
2019-03-05T11:51:35.275Z,20.30
2019-03-05T11:54:06.862Z,20.10
2019-03-05T11:56:39.152Z,20.20
2019-03-05T11:59:10.908Z,20.10
2019-03-05T12:01:47.974Z,20.30
2019-03-05T12:04:19.555Z,19.50
2019-03-05T12:06:51.260Z,19.30
2019-03-05T12:09:23.036Z,19.60
2019-03-05T12:11:54.601Z,19.80
2019-03-05T12:14:26.241Z,20.10
2019-03-05T12:16:59.253Z,20.00
2019-03-05T12:19:31.064Z,20.10
2019-03-05T12:22:02.764Z,20.00
2019-03-05T12:24:34.381Z,20.10
2019-03-05T12:27:06.076Z,20.20
2019-03-05T12:29:38.910Z,20.30
2019-03-05T12:32:10.656Z,20.30
2019-03-05T12:34:42.325Z,19.70
2019-03-05T12:37:14.143Z,19.50
2019-03-05T12:39:45.677Z,19.50
2019-03-05T12:42:17.462Z,19.90
2019-03-05T12:44:49.106Z,19.90
2019-03-05T12:47:20.990Z,20.00
2019-03-05T12:49:52.622Z,20.10
2019-03-05T12:52:24.504Z,20.60
2019-03-05T12:54:56.355Z,20.60
2019-03-05T12:57:28.020Z,20.90
2019-03-05T12:59:59.653Z,20.90
2019-03-05T13:02:31.433Z,20.50
2019-03-05T13:05:03.105Z,20.30
2019-03-05T13:07:36.991Z,20.50
2019-03-05T13:10:09.406Z,20.70
2019-03-05T13:12:41.036Z,20.90
2019-03-05T13:15:14.206Z,21.20
2019-03-05T13:17:47.170Z,20.80
2019-03-05T13:20:22.454Z,20.70
2019-03-05T13:22:53.585Z,20.50
2019-03-05T13:25:28.467Z,20.60
2019-03-05T13:28:02.255Z,20.20
2019-03-05T13:30:31.992Z,20.10
2019-03-05T13:33:03.629Z,20.10
2019-03-05T13:35:35.386Z,20.50
2019-03-05T13:38:08.935Z,20.30
2019-03-05T13:40:40.792Z,20.30
2019-03-05T13:43:12.789Z,20.50
2019-03-05T13:45:49.428Z,20.20
2019-03-05T13:49:01.212Z,20.60
2019-03-05T13:52:03.074Z,20.40
2019-03-05T13:55:05.170Z,20.20
2019-03-05T13:58:16.106Z,20.10
2019-03-05T14:00:47.799Z,20.10
2019-03-05T14:03:23.119Z,20.00
2019-03-05T14:06:40.944Z,20.00
2019-03-05T14:09:14.463Z,20.10
2019-03-05T14:11:48.523Z,19.70
2019-03-05T14:14:30.616Z,19.80
2019-03-05T14:17:20.981Z,19.40
2019-03-05T14:19:58.856Z,19.30
2019-03-05T14:22:30.572Z,19.50
2019-03-05T14:25:03.073Z,19.50
2019-03-05T14:27:35.119Z,19.40
2019-03-05T14:30:08.428Z,19.40
2019-03-05T14:32:40.066Z,19.30
2019-03-05T14:35:17.767Z,19.20
2019-03-05T14:37:49.747Z,19.10
2019-03-05T14:40:25.221Z,19.00
2019-03-05T14:42:56.987Z,18.90
2019-03-05T14:45:31.632Z,18.90
2019-03-05T14:48:04.552Z,18.60
2019-03-05T14:50:37.481Z,18.60
2019-03-05T14:53:09.487Z,18.30
2019-03-05T14:55:41.212Z,18.00
2019-03-05T14:58:12.962Z,17.90
2019-03-05T15:00:44.730Z,17.80
2019-03-05T15:03:16.371Z,17.70
2019-03-05T15:05:48.393Z,17.60
2019-03-05T15:08:20.291Z,17.50
2019-03-05T15:10:52.060Z,17.40
2019-03-05T15:13:23.863Z,17.40
2019-03-05T15:15:55.576Z,17.30
2019-03-05T15:18:27.434Z,17.20
2019-03-05T15:20:59.283Z,17.10
2019-03-05T15:23:30.976Z,17.00
2019-03-05T15:26:02.644Z,16.80
2019-03-05T15:28:34.433Z,16.60
2019-03-05T15:31:06.301Z,16.40
2019-03-05T15:33:37.915Z,16.40
2019-03-05T15:36:22.927Z,16.20
2019-03-05T15:39:00.300Z,16.00
2019-03-05T15:41:35.605Z,15.90
2019-03-05T15:44:07.810Z,15.70
2019-03-05T15:46:39.941Z,15.60
2019-03-05T15:49:14.570Z,15.40
2019-03-05T15:51:49.695Z,15.30
2019-03-05T15:54:22.353Z,15.10
2019-03-05T15:56:55.914Z,15.00
2019-03-05T15:59:28.150Z,14.90
2019-03-05T16:02:00.931Z,14.80
2019-03-05T16:04:35.964Z,14.60
2019-03-05T16:07:10.928Z,14.50
2019-03-05T16:09:43.724Z,14.20
2019-03-05T16:12:14.548Z,14.10
2019-03-05T16:14:47.593Z,13.90
2019-03-05T16:17:19.462Z,13.80
2019-03-05T16:19:52.770Z,13.70
2019-03-05T16:22:24.609Z,13.60
2019-03-05T16:24:56.441Z,13.50
2019-03-05T16:27:29.988Z,13.50
2019-03-05T16:30:02.498Z,13.50
2019-03-05T16:32:42.628Z,13.40
2019-03-05T16:35:39.060Z,13.30
2019-03-05T16:38:22.601Z,13.30
2019-03-05T16:41:10.593Z,13.20
2019-03-05T16:43:58.444Z,13.10
2019-03-05T16:46:51.976Z,13.20
2019-03-05T16:49:39.379Z,13.10
2019-03-05T16:52:21.226Z,13.20
2019-03-05T16:55:10.407Z,13.20
2019-03-05T16:57:59.614Z,13.10
2019-03-05T17:00:50.142Z,13.10
2019-03-05T17:03:53.009Z,13.00
2019-03-05T17:06:49.592Z,12.90
2019-03-05T17:10:07.946Z,12.90
2019-03-05T17:12:39.985Z,12.80
2019-03-05T17:15:12.156Z,12.80
2019-03-05T17:17:44.076Z,12.70
2019-03-05T17:20:16.061Z,12.70
2019-03-05T17:22:48.174Z,12.60
2019-03-05T17:25:20.204Z,12.60
2019-03-05T17:27:52.008Z,12.50
2019-03-05T17:30:24.948Z,12.50
2019-03-05T17:32:56.814Z,12.50
2019-03-05T17:35:29.683Z,12.50
2019-03-05T17:38:01.596Z,12.40
2019-03-05T17:40:33.508Z,12.40
2019-03-05T17:43:05.394Z,12.30
2019-03-05T17:45:37.996Z,12.40
2019-03-05T17:48:10.943Z,12.50
2019-03-05T17:50:42.829Z,12.40
2019-03-05T17:53:14.800Z,12.30
2019-03-05T17:55:46.776Z,12.40
2019-03-05T17:58:18.383Z,12.30
2019-03-05T18:00:50.490Z,12.30
2019-03-05T18:03:22.034Z,12.20
2019-03-05T18:05:54.099Z,12.20
2019-03-05T18:08:26.153Z,12.20
2019-03-05T18:10:58.021Z,12.20
2019-03-05T18:13:29.877Z,12.20
2019-03-05T18:16:01.839Z,12.20
2019-03-05T18:18:33.648Z,12.20
2019-03-05T18:21:06.088Z,12.20
2019-03-05T18:23:38.754Z,12.10
2019-03-05T18:26:10.453Z,12.10
2019-03-05T18:28:42.469Z,12.20
2019-03-05T18:31:14.246Z,12.10
2019-03-05T18:33:45.904Z,12.10
2019-03-05T18:36:17.740Z,11.90
2019-03-05T18:38:49.456Z,11.90
2019-03-05T18:41:21.236Z,11.90
2019-03-05T18:43:54.717Z,11.90
2019-03-05T18:46:27.420Z,11.90
2019-03-05T18:48:59.071Z,11.90
2019-03-05T18:51:30.873Z,11.90
2019-03-05T18:54:02.536Z,12.00
2019-03-05T18:56:34.217Z,11.90
2019-03-05T18:59:06.680Z,11.90
2019-03-05T19:01:38.484Z,12.00
2019-03-05T19:04:11.133Z,11.90
2019-03-05T19:06:43.326Z,11.90
2019-03-05T19:09:15.164Z,12.00
2019-03-05T19:11:46.737Z,11.90
2019-03-05T19:14:18.461Z,12.00
2019-03-05T19:16:51.106Z,12.20
2019-03-05T19:19:23.254Z,12.20
2019-03-05T19:21:55.000Z,12.30
2019-03-05T19:24:26.903Z,12.50
2019-03-05T19:26:59.852Z,12.40
2019-03-05T19:29:31.703Z,12.20
2019-03-05T19:32:03.795Z,12.10
2019-03-05T19:34:35.417Z,12.10
2019-03-05T19:37:07.011Z,12.30
2019-03-05T19:39:38.728Z,12.20
2019-03-05T19:42:10.499Z,12.20
2019-03-05T19:44:42.714Z,12.10
2019-03-05T19:47:14.481Z,12.20
2019-03-05T19:49:46.281Z,12.20
2019-03-05T19:52:17.977Z,12.30
2019-03-05T19:54:49.783Z,12.30
2019-03-05T19:57:21.548Z,12.20
2019-03-05T19:59:53.710Z,12.00
2019-03-05T20:02:25.535Z,11.90
2019-03-05T20:04:57.235Z,11.80
2019-03-05T20:07:28.878Z,11.70
2019-03-05T20:10:00.641Z,11.70
2019-03-05T20:12:32.473Z,11.70
2019-03-05T20:15:04.403Z,11.70
2019-03-05T20:17:36.133Z,11.70
2019-03-05T20:20:08.734Z,11.70
2019-03-05T20:22:40.563Z,11.80
2019-03-05T20:25:17.632Z,11.70
2019-03-05T20:27:51.712Z,11.40
2019-03-05T20:30:24.170Z,11.30
2019-03-05T20:32:55.900Z,11.10
2019-03-05T20:35:28.760Z,11.20
2019-03-05T20:38:00.686Z,11.20
2019-03-05T20:40:32.725Z,11.30
2019-03-05T20:43:04.618Z,11.30
2019-03-05T20:45:36.563Z,11.00
2019-03-05T20:48:08.267Z,10.90
2019-03-05T20:50:40.226Z,10.80
2019-03-05T20:53:12.076Z,10.80
2019-03-05T20:55:44.052Z,10.90
2019-03-05T20:58:15.786Z,10.70
2019-03-05T21:00:48.176Z,10.40
2019-03-05T21:03:20.274Z,10.30
2019-03-05T21:05:52.175Z,10.20
2019-03-05T21:08:24.201Z,10.10
2019-03-05T21:10:56.397Z,10.00
2019-03-05T21:13:28.117Z,9.90
2019-03-05T21:15:59.856Z,9.80
2019-03-05T21:18:32.543Z,10.10
2019-03-05T21:21:04.564Z,10.10
2019-03-05T21:23:36.207Z,9.90
2019-03-05T21:26:08.041Z,10.00
2019-03-05T21:28:39.733Z,10.00
2019-03-05T21:31:11.955Z,10.10
2019-03-05T21:33:44.740Z,9.90
2019-03-05T21:36:16.492Z,9.80
2019-03-05T21:38:48.106Z,9.80
2019-03-05T21:41:20.083Z,10.00
2019-03-05T21:43:51.579Z,10.00
2019-03-05T21:46:23.267Z,9.80
2019-03-05T21:48:55.120Z,9.70
2019-03-05T21:51:27.183Z,9.50
2019-03-05T21:53:58.820Z,9.50
2019-03-05T21:56:30.709Z,9.50
2019-03-05T21:59:04.344Z,9.30
2019-03-05T22:01:36.471Z,9.40
2019-03-05T22:04:08.110Z,9.20
2019-03-05T22:06:39.919Z,9.10
2019-03-05T22:09:11.634Z,9.20
2019-03-05T22:11:43.835Z,9.10
2019-03-05T22:14:16.659Z,9.00
2019-03-05T22:16:48.428Z,9.10
2019-03-05T22:19:21.145Z,8.80
2019-03-05T22:21:53.073Z,8.70
2019-03-05T22:24:24.834Z,8.60
2019-03-05T22:26:56.774Z,8.60
2019-03-05T22:29:28.478Z,8.80
2019-03-05T22:32:00.464Z,8.70
2019-03-05T22:34:32.401Z,8.50
2019-03-05T22:37:05.152Z,8.50
2019-03-05T22:39:37.970Z,8.50
2019-03-05T22:42:09.681Z,8.60
2019-03-05T22:44:41.419Z,8.80
2019-03-05T22:47:13.228Z,8.90
2019-03-05T22:49:44.657Z,8.80
2019-03-05T22:52:16.368Z,8.70
2019-03-05T22:54:48.159Z,8.60
2019-03-05T22:57:19.776Z,8.60
2019-03-05T22:59:51.458Z,8.60
2019-03-05T23:02:23.027Z,8.60
2019-03-05T23:04:55.291Z,8.70
2019-03-05T23:07:27.047Z,9.00
2019-03-05T23:09:58.864Z,8.90
2019-03-05T23:12:30.495Z,8.80
2019-03-05T23:15:03.344Z,8.70
2019-03-05T23:17:46.382Z,8.80
2019-03-05T23:20:19.900Z,8.60
2019-03-05T23:22:51.788Z,8.70
2019-03-05T23:25:23.561Z,8.70
2019-03-05T23:27:55.346Z,8.70
2019-03-05T23:30:27.166Z,8.40
2019-03-05T23:32:59.214Z,8.50
2019-03-05T23:35:31.010Z,8.50
2019-03-05T23:38:02.620Z,8.30
2019-03-05T23:40:35.154Z,8.30
2019-03-05T23:43:07.122Z,8.40
2019-03-05T23:45:38.919Z,8.40
2019-03-05T23:48:10.466Z,8.30
2019-03-05T23:50:43.123Z,8.30
2019-03-05T23:53:14.990Z,8.40
2019-03-05T23:55:47.081Z,8.30
2019-03-05T23:58:18.664Z,8.30
